KJAX/JAX METAR and TAF weather

Enter ICAO airport designator
Station Type Date Time Source
KJAX METAR 2021/09/24 04:56 UTC NOAA

KJAX 240456Z 36003KT 10SM CLR 18/15 A2999 RMK AO2 SLP156 T01780150 402830178


Station Type Date Time Source
KJAX Decoded METAR 2021/09/24 04:56 UTC NOAA

JACKSONVILLE INTERNATIONAL, FL, United States (KJAX) 30-30N 81-42W 7M
Sep 24, 2021 - 12:56 AM EDT / 2021.09.24 0456 UTC
Wind: from the N (360 degrees) at 3 MPH (3 KT):0
Visibility: 10 mile(s):0
Sky conditions: clear
Temperature: 64.0 F (17.8 C)
Dew Point: 59.0 F (15.0 C)
Relative Humidity: 83%
Pressure (altimeter): 29.99 in. Hg (1015 hPa)
ob: KJAX 240456Z 36003KT 10SM CLR 18/15 A2999 RMK AO2 SLP156 T01780150 402830178
cycle: 5

Station Type Date Time Source
KJAX TAF 2021/09/24 06:33 UTC NOAA

TAF KJAX 240530Z 2406/2506 35004KT P6SM FEW060
FM241400 03009KT P6SM SCT045
FM242200 06006KT P6SM FEW050
FM250300 00000KT P6SM SKC

Example: see airport list